默认 日期 大小 文件数 浏览量 最新下载 xml
dos-磁力链接相关资源由用户搜索指令自动获取,结果来源于网络,本站不存储任何资料,亦不承担任何责任,请于24小时内删除,搜索到7130个磁力,显示前4000条数据,用时8ms。
    {"[Anf].Dos.(2021).WEBRip.avi": 1374681088, "[Anf].Dos.(2021).WEBRip.Rus_full.srt": 51786}
创建时间: 2022-04-09 06:47:34 大小:1.28 GB 文件数量:2 热度:3 最近下载:2025-01-27 02:13:04
    {"AtomoHD PL.url": 119, "ATOMOHD CANAL TELEGRAM.url": 114, "Dos Anos Y Un Dia - Temporada 1 [HDTV 720p][Cap.103][AC3 5.1 Castellano][www.AtomoHD.PL].mkv": 373982042}
创建时间: 2022-07-12 17:56:35 大小:356.66 MB 文件数量:3 热度:10 最近下载:2025-01-27 01:49:02
    {"Campo.dos.Sonhos.1989.1080p.BluRay.x264.YIFY-DUAL-djthiago.mkv": 9513998612, "Campo.dos.Sonhos.1989.1080p.BluRay.x264.YIFY-DUAL-djthiago.srt": 87985}
创建时间: 2023-02-19 18:24:03 大小:8.86 GB 文件数量:2 热度:2 最近下载:2025-01-27 01:09:10
    {"Importante Leeme!.vbs": 213, "Descargar Películas, Series y Animes...url": 50, "Dos.pecadoras.y.una.mula.2023.1080p-dual-lat.mkv": 3086179010}
创建时间: 2023-05-14 18:30:10 大小:2.87 GB 文件数量:3 热度:4 最近下载:2025-01-27 00:55:02
    {"Dos tiempos - Temporada 1 [HDTV][Cap.104].avi": 465451748}
创建时间: 2023-05-20 21:08:53 大小:443.89 MB 文件数量:1 热度:2 最近下载:2025-01-27 00:54:07
    {"__ia_thumb.jpg": 13235, "imagine3_Dos01.png": 25480, "imagine3_Dos02.png": 3302, "imagine3_Dos03.png": 9271, "imagine4_Dos01.png": 350544, "imagine4_Dos02.png": 3531, "imagine4_Dos03.png": 13051, "imagine20_Dos01.png": 35105, "imagine20_Dos02.png": 3650, ...
创建时间: 2023-06-02 07:44:48 大小:4.18 MB 文件数量:20 热度:3 最近下载:2025-01-27 00:52:04
    ... .txt": 585, "[TutsNode.net] - MS-DOS Complete Course from Zero to ... ": 2205}, "1. Introduction to MS-DOS": {"1. Introduction.mp4": 11903579, "1 ... Prompt.srt": 3011}, "2. Starting DOS with Easy Commands": {"1. Changing ...
创建时间: 2023-07-22 23:33:29 大小:412.12 MB 文件数量:123 热度:3 最近下载:2025-01-27 00:45:07
    {"WOLF3D.zip": 1120128, "__ia_thumb.jpg": 21856, "screenshot_00.png": 35003, "screenshot_01.png": 1949, "screenshot_02.png": 3549, "screenshot_03.png": 41219, "screenshot_04.png": 7164, "screenshot_05.png": 10309, "screenshot_06.png": 29727, "screenshot_07 ...
创建时间: 2024-04-06 17:28:14 大小:1.93 MB 文件数量:25 热度:3 最近下载:2025-01-27 00:12:10
    {"Descargar Torrent Gratis.url": 226, "NUEVOCANAL [email protected]": 220, "Los dos lados del puente 1X3 HDTV XviD Castellano.avi": 657546438}
创建时间: 2024-04-21 10:35:05 大小:627.09 MB 文件数量:3 热度:2 最近下载:2025-01-27 00:10:04
    {"Los dos lados del puente [HDTV][Cap.102](wolfmax4k.com).avi": 486356472}
创建时间: 2024-04-23 13:34:52 大小:463.83 MB 文件数量:1 热度:2 最近下载:2025-01-27 00:10:02
    ... -ingame-(s-yxg50).png": 45197, "DOS-Gaming-General-MIDI-Comparison_meta.xml ... -(scva-sc-88).png": 41904, "DOS-Gaming-General-MIDI-Comparison_meta.sqlite ...
创建时间: 2024-05-22 16:47:26 大小:8.33 GB 文件数量:3274 热度:2 最近下载:2025-01-27 00:08:05
    {"Tuerqui_MadeinTorrent.com.url": 155, "Dos Vidas - 1x19 (HDTV-720p) Castellano.mkv": 1099429264}
创建时间: 2021-02-19 03:45:40 大小:1.02 GB 文件数量:2 热度:2 最近下载:2025-01-26 23:31:07
    ... mkv": 1731041317, "Cronica.dos.Bons.Malandros.S01E02.1080p.Ultradox ... mkv": 1733024008, "Cronica.dos.Bons.Malandros.S01E03.1080p.Ultradox ... mkv": 1723274865, "Cronica.dos.Bons.Malandros.S01E04.1080p. ... mkv": 1768698432, "Cronica.dos.Bons.Malandros.S01E05.1080p. ...
创建时间: 2022-01-09 17:50:02 大小:12.54 GB 文件数量:8 热度:3 最近下载:2025-01-26 22:36:07
    ... , "Command and Conquer.zip": 725545857, "DOS-Arquivista_meta.xml": 1012, "Jazz Jackrabbit ... , "Bio Menace Compilation.zip": 1617019, "DOS-Arquivista_meta.sqlite": 125952, "Hexen - Beyond ...
创建时间: 2022-03-12 18:49:52 大小:13.84 GB 文件数量:186 热度:3 最近下载:2025-01-26 22:28:11
    {"AtomoHD EU.url": 119, "ATOMOHD CANAL TELEGRAM.url": 114, "Dos ANYos Y Un Dia - Temporada 1 [WEB-DL 1080p][Cap.105][Dual DDP5.1 + Subs][www.atomoHD.EU].mkv": 642572410}
创建时间: 2022-07-25 06:21:17 大小:612.81 MB 文件数量:3 热度:5 最近下载:2025-01-26 22:01:49
    ... CANAL TELEGRAM.url": 114, "Mis dos vidas (2022) [BluRay 720p X264 ... .com].part1.rar": 1038090240, "Mis dos vidas (2022) [BluRay 720p X264 ... .com].part2.rar": 1038090240, "Mis dos vidas (2022) [BluRay 720p X264 ...
创建时间: 2022-08-20 17:12:35 大小:2.19 GB 文件数量:5 热度:3 最近下载:2025-01-26 21:56:06
    {"Importante Leeme!.vbs": 213, "Descargar Películas, Series y Animes...url": 50, "Dos.hombres.y.medio.4x16.Dual.1080p-lat.mkv": 555999278}
创建时间: 2022-10-30 07:27:20 大小:530.24 MB 文件数量:3 热度:2 最近下载:2025-01-26 21:47:08
    {"[TGx]Downloaded from torrentgalaxy.org .txt": 524, "UFC.Fight.Night.133.dos.Santos.vs.Ivanov.720p.HDTV.x264-Ebi.mp4": 6146767217}
创建时间: 2022-11-18 21:25:09 大小:5.72 GB 文件数量:2 热度:2 最近下载:2025-01-26 21:45:07
    ... Enzensberger_jp2.zip": 148782731, "O.Diabo.dos.Nmeros-Hans.Magnus.Enzensberger_meta.sqlite ... ": 11264, "O Diabo dos Números - Hans Magnus Enzensberger_abbyy ... Enzensberger_djvu.xml": 2242536, "O Diabo dos Números - Hans Magnus Enzensberger_scandata ...
创建时间: 2022-11-17 20:44:08 大小:165.45 MB 文件数量:9 热度:2 最近下载:2025-01-26 21:45:04
    ... .mkv": 1075454655, "Vale.dos.Esquecidos.S01E02.720p.Ultradox.mkv ... ": 1060750002, "Vale.dos.Esquecidos.S01E03.720p.Ultradox.mkv ... ": 1010867280, "Vale.dos.Esquecidos.S01E04.720p.Ultradox.mkv ... ": 1021452710, "Vale.dos.Esquecidos.S01E05.720p.Ultradox.mkv ...
创建时间: 2022-11-27 20:45:14 大小:9.64 GB 文件数量:10 热度:2 最近下载:2025-01-26 21:44:02